createdAt,value
2022-08-23T00:01:23.973Z,22.40
2022-08-23T00:03:52.441Z,22.33
2022-08-23T00:06:19.222Z,22.31
2022-08-23T00:08:48.686Z,22.28
2022-08-23T00:11:28.409Z,22.21
2022-08-23T00:13:55.752Z,22.21
2022-08-23T00:16:22.600Z,22.14
2022-08-23T00:18:49.587Z,22.08
2022-08-23T00:21:17.090Z,22.02
2022-08-23T00:23:43.788Z,21.95
2022-08-23T00:26:10.778Z,21.93
2022-08-23T00:28:37.541Z,21.92
2022-08-23T00:31:05.107Z,21.86
2022-08-23T00:33:31.686Z,21.81
2022-08-23T00:35:58.240Z,21.76
2022-08-23T00:38:32.493Z,21.73
2022-08-23T00:41:01.843Z,21.70
2022-08-23T00:44:00.760Z,21.63
2022-08-23T00:47:01.386Z,21.53
2022-08-23T00:49:29.854Z,21.49
2022-08-23T00:52:08.354Z,21.45
2022-08-23T00:54:38.043Z,21.39
2022-08-23T00:57:19.330Z,21.36
2022-08-23T00:59:46.737Z,21.38
2022-08-23T01:02:14.816Z,21.40
2022-08-23T01:04:50.457Z,21.42
2022-08-23T01:07:34.056Z,21.40
2022-08-23T01:10:09.345Z,21.41
2022-08-23T01:12:50.476Z,21.42
2022-08-23T01:15:23.922Z,21.32
2022-08-23T01:17:58.649Z,21.26
2022-08-23T01:20:26.987Z,21.17
2022-08-23T01:23:10.464Z,21.13
2022-08-23T01:25:38.126Z,21.14
2022-08-23T01:28:05.143Z,21.16
2022-08-23T01:30:35.386Z,21.15
2022-08-23T01:33:06.127Z,21.15
2022-08-23T01:35:44.804Z,21.12
2022-08-23T01:38:12.603Z,21.12
2022-08-23T01:40:40.045Z,21.10
2022-08-23T01:43:07.573Z,21.07
2022-08-23T01:45:35.327Z,21.06
2022-08-23T01:48:02.833Z,21.06
2022-08-23T01:50:30.337Z,21.05
2022-08-23T01:52:57.840Z,21.03
2022-08-23T01:55:25.810Z,21.00
2022-08-23T01:57:55.877Z,20.97
2022-08-23T02:00:27.475Z,20.89
2022-08-23T02:02:54.030Z,20.82
2022-08-23T02:05:20.706Z,20.78
2022-08-23T02:07:48.381Z,20.72
2022-08-23T02:10:16.109Z,20.71
2022-08-23T02:12:46.827Z,20.71
2022-08-23T02:15:14.902Z,20.69
2022-08-23T02:17:41.805Z,20.67
2022-08-23T02:20:09.193Z,20.64
2022-08-23T02:22:39.034Z,20.60
2022-08-23T02:25:06.648Z,20.58
2022-08-23T02:27:33.230Z,20.54
2022-08-23T02:29:59.790Z,20.55
2022-08-23T02:32:28.759Z,20.51
2022-08-23T02:35:05.725Z,20.49
2022-08-23T02:37:33.187Z,20.49
2022-08-23T02:40:00.227Z,20.45
2022-08-23T02:42:26.979Z,20.31
2022-08-23T02:44:53.548Z,20.31
2022-08-23T02:47:20.112Z,20.17
2022-08-23T02:49:46.932Z,20.13
2022-08-23T02:52:13.685Z,20.05
2022-08-23T02:54:40.395Z,20.02
2022-08-23T02:57:07.191Z,20.04
2022-08-23T02:59:33.861Z,20.04
2022-08-23T03:02:00.572Z,20.01
2022-08-23T03:04:27.535Z,20.01
2022-08-23T03:06:54.208Z,20.02
2022-08-23T03:09:20.905Z,20.02
2022-08-23T03:11:50.028Z,20.03
2022-08-23T03:14:16.991Z,20.03
2022-08-23T03:16:44.950Z,20.00
2022-08-23T03:19:11.537Z,20.00
2022-08-23T03:21:38.690Z,19.93
2022-08-23T03:24:10.189Z,19.91
2022-08-23T03:26:37.613Z,19.91
2022-08-23T03:29:04.726Z,19.90
2022-08-23T03:31:31.327Z,19.90
2022-08-23T03:33:58.192Z,19.87
2022-08-23T03:36:28.023Z,19.85
2022-08-23T03:38:55.567Z,19.82
2022-08-23T03:41:22.393Z,19.83
2022-08-23T03:43:49.043Z,19.82
2022-08-23T03:46:23.067Z,19.82
2022-08-23T03:48:55.391Z,19.85
2022-08-23T03:51:24.498Z,19.84
2022-08-23T03:53:51.178Z,19.81
2022-08-23T03:56:21.870Z,19.78
2022-08-23T03:58:50.194Z,19.77
2022-08-23T04:01:17.276Z,19.76
2022-08-23T04:03:43.970Z,19.74
2022-08-23T04:06:12.003Z,19.75
2022-08-23T04:08:38.749Z,19.75
2022-08-23T04:11:05.780Z,19.75
2022-08-23T04:13:32.371Z,19.71
2022-08-23T04:15:59.027Z,19.71
2022-08-23T04:18:25.682Z,19.67
2022-08-23T04:20:53.045Z,19.66
2022-08-23T04:23:19.588Z,19.66
2022-08-23T04:25:46.322Z,19.64
2022-08-23T04:28:12.965Z,19.64
2022-08-23T04:30:39.527Z,19.65
2022-08-23T04:33:09.927Z,19.70
2022-08-23T04:35:37.907Z,19.73
2022-08-23T04:38:04.499Z,19.76
2022-08-23T04:41:11.406Z,19.79
2022-08-23T04:43:38.514Z,19.79
2022-08-23T04:46:05.708Z,19.81
2022-08-23T04:48:32.545Z,19.79
2022-08-23T04:50:59.266Z,19.78
2022-08-23T04:53:25.989Z,19.78
2022-08-23T04:55:52.548Z,19.84
2022-08-23T04:58:19.408Z,19.88
2022-08-23T05:00:51.522Z,19.90
2022-08-23T05:03:18.441Z,19.90
2022-08-23T05:05:45.042Z,19.95
2022-08-23T05:08:11.704Z,19.97
2022-08-23T05:10:38.635Z,20.00
2022-08-23T05:13:05.207Z,20.04
2022-08-23T05:15:31.798Z,20.04
2022-08-23T05:17:58.409Z,20.08
2022-08-23T05:20:25.163Z,20.13
2022-08-23T05:22:51.999Z,20.15
2022-08-23T05:25:18.591Z,20.22
2022-08-23T05:27:45.231Z,20.30
2022-08-23T05:30:15.133Z,20.36
2022-08-23T05:32:42.420Z,20.43
2022-08-23T05:35:09.392Z,20.48
2022-08-23T05:37:36.007Z,20.57
2022-08-23T05:40:02.867Z,20.64
2022-08-23T05:42:29.468Z,20.72
2022-08-23T05:44:56.604Z,20.80
2022-08-23T05:47:24.863Z,20.87
2022-08-23T05:49:51.846Z,20.96
2022-08-23T05:52:18.439Z,21.04
2022-08-23T05:54:45.128Z,21.10
2022-08-23T05:57:11.874Z,21.18
2022-08-23T05:59:38.556Z,21.31
2022-08-23T06:02:06.102Z,21.37
2022-08-23T06:04:33.268Z,21.45
2022-08-23T06:06:59.910Z,21.57
2022-08-23T06:09:26.707Z,21.59
2022-08-23T06:11:54.400Z,21.66
2022-08-23T06:14:21.560Z,21.73
2022-08-23T06:16:53.619Z,21.75
2022-08-23T06:19:23.290Z,21.83
2022-08-23T06:21:51.360Z,21.91
2022-08-23T06:24:18.131Z,21.96
2022-08-23T06:26:45.814Z,21.93
2022-08-23T06:29:16.026Z,21.98
2022-08-23T06:31:49.164Z,22.09
2022-08-23T06:34:27.819Z,22.17
2022-08-23T06:37:02.366Z,22.21
2022-08-23T06:39:33.437Z,22.27
2022-08-23T06:42:13.309Z,22.35
2022-08-23T06:44:48.998Z,22.42
2022-08-23T06:47:15.730Z,22.51
2022-08-23T06:49:51.106Z,22.50
2022-08-23T06:52:24.761Z,22.58
2022-08-23T06:54:52.582Z,22.67
2022-08-23T06:57:20.638Z,22.75
2022-08-23T06:59:50.050Z,22.82
2022-08-23T07:02:16.885Z,22.94
2022-08-23T07:04:43.634Z,23.05
2022-08-23T07:07:12.167Z,23.13
2022-08-23T07:09:40.572Z,23.17
2022-08-23T07:12:07.713Z,23.30
2022-08-23T07:14:34.535Z,23.34
2022-08-23T07:17:03.628Z,23.39
2022-08-23T07:19:33.236Z,23.50
2022-08-23T07:22:01.788Z,23.58
2022-08-23T07:24:33.315Z,23.55
2022-08-23T07:27:04.025Z,23.51
2022-08-23T07:29:30.548Z,23.47
2022-08-23T07:31:58.118Z,23.53
2022-08-23T07:34:26.325Z,23.56
2022-08-23T07:36:54.341Z,23.66
2022-08-23T07:39:22.844Z,23.79
2022-08-23T07:41:49.922Z,23.89
2022-08-23T07:44:18.268Z,23.99
2022-08-23T07:46:47.032Z,24.06
2022-08-23T07:49:15.525Z,24.13
2022-08-23T07:51:45.585Z,24.19
2022-08-23T07:54:13.514Z,24.23
2022-08-23T07:56:40.621Z,24.33
2022-08-23T07:59:08.476Z,24.38
2022-08-23T08:01:36.291Z,24.48
2022-08-23T08:04:04.863Z,24.53
2022-08-23T08:06:40.468Z,24.56
2022-08-23T08:09:07.983Z,24.58
2022-08-23T08:11:35.803Z,24.67
2022-08-23T08:14:07.974Z,24.65
2022-08-23T08:17:00.771Z,24.66
2022-08-23T08:19:27.388Z,24.69
2022-08-23T08:21:53.966Z,24.70
2022-08-23T08:24:20.530Z,24.75
2022-08-23T08:26:47.409Z,24.77
2022-08-23T08:29:14.306Z,24.84
2022-08-23T08:31:43.309Z,24.93
2022-08-23T08:34:12.036Z,24.99
2022-08-23T08:36:52.112Z,24.97
2022-08-23T08:39:22.425Z,25.09
2022-08-23T08:42:04.775Z,25.08
2022-08-23T08:44:37.452Z,25.20
2022-08-23T08:47:29.231Z,25.23
2022-08-23T08:50:26.680Z,25.29
2022-08-23T08:53:10.230Z,25.34
2022-08-23T08:55:41.569Z,25.40
2022-08-23T08:58:17.306Z,25.51
2022-08-23T09:00:44.145Z,25.54
2022-08-23T09:03:14.479Z,25.55
2022-08-23T09:05:52.854Z,25.61
2022-08-23T09:08:44.207Z,25.69
2022-08-23T09:11:45.622Z,25.74
2022-08-23T09:14:15.175Z,25.82
2022-08-23T09:17:05.602Z,25.92
2022-08-23T09:19:37.094Z,25.98
2022-08-23T09:22:15.380Z,26.07
2022-08-23T09:24:42.671Z,26.16
2022-08-23T09:27:10.658Z,26.10
2022-08-23T09:29:40.556Z,26.15
2022-08-23T09:32:26.993Z,26.27
2022-08-23T09:35:25.109Z,26.34
2022-08-23T09:38:17.429Z,26.33
2022-08-23T09:40:46.484Z,26.31
2022-08-23T09:43:43.731Z,26.29
2022-08-23T09:46:10.492Z,26.28
2022-08-23T09:48:45.576Z,26.28
2022-08-23T09:51:29.589Z,26.36
2022-08-23T09:54:34.911Z,26.41
2022-08-23T09:57:05.064Z,26.40
2022-08-23T09:59:35.102Z,26.51
2022-08-23T10:02:02.569Z,26.51
2022-08-23T10:04:38.886Z,26.49
2022-08-23T10:07:26.212Z,26.66
2022-08-23T10:09:53.168Z,26.76
2022-08-23T10:12:19.966Z,26.76
2022-08-23T10:14:48.114Z,26.82
2022-08-23T10:17:14.783Z,26.87
2022-08-23T10:19:52.464Z,26.93
2022-08-23T10:22:24.558Z,27.01
2022-08-23T10:25:02.686Z,27.02
2022-08-23T10:28:03.322Z,26.99
2022-08-23T10:30:51.797Z,27.05
2022-08-23T10:33:38.654Z,27.12
2022-08-23T10:36:05.494Z,27.20
2022-08-23T10:38:35.687Z,27.20
2022-08-23T10:41:23.718Z,27.10
2022-08-23T10:44:14.912Z,27.04
2022-08-23T10:47:20.068Z,27.06
2022-08-23T10:49:50.796Z,27.12
2022-08-23T10:52:23.622Z,27.19
2022-08-23T10:55:05.875Z,27.25
2022-08-23T10:57:37.924Z,27.37
2022-08-23T11:00:09.160Z,27.43
2022-08-23T11:03:04.806Z,27.47
2022-08-23T11:05:35.873Z,27.45
2022-08-23T11:08:11.973Z,27.44
2022-08-23T11:10:39.224Z,27.47
2022-08-23T11:13:21.730Z,27.43
2022-08-23T11:16:23.509Z,27.52
2022-08-23T11:18:51.271Z,27.54
2022-08-23T11:21:18.010Z,27.59
2022-08-23T11:23:58.424Z,27.60
2022-08-23T11:26:34.191Z,27.64
2022-08-23T11:29:06.845Z,27.70
2022-08-23T11:31:38.710Z,27.69
2022-08-23T11:34:31.524Z,27.71
2022-08-23T11:37:20.052Z,27.74
2022-08-23T11:40:07.554Z,27.78
2022-08-23T11:42:44.822Z,27.85
2022-08-23T11:47:42.422Z,27.90
2022-08-23T11:50:38.798Z,27.93
2022-08-23T11:53:44.032Z,27.94
2022-08-23T11:56:52.598Z,28.04
2022-08-23T11:59:41.622Z,28.12
2022-08-23T12:02:39.772Z,28.17
2022-08-23T12:05:35.349Z,28.23
2022-08-23T12:08:02.712Z,28.33
2022-08-23T12:10:41.775Z,28.35
2022-08-23T12:13:20.628Z,28.38
2022-08-23T12:16:14.778Z,28.41
2022-08-23T12:18:53.466Z,28.44
2022-08-23T12:21:50.795Z,28.44
2022-08-23T12:24:20.290Z,28.49
2022-08-23T12:27:09.337Z,28.52
2022-08-23T12:30:03.118Z,28.51
2022-08-23T12:32:49.951Z,28.53
2022-08-23T12:35:25.863Z,28.64
2022-08-23T12:38:04.317Z,28.67
2022-08-23T12:40:43.928Z,28.72
2022-08-23T12:43:22.505Z,28.78
2022-08-23T12:46:00.968Z,28.76
2022-08-23T12:48:30.935Z,28.88
2022-08-23T12:51:10.840Z,28.93
2022-08-23T12:53:45.611Z,29.02
2022-08-23T12:56:20.027Z,29.13
2022-08-23T12:58:53.636Z,29.16
2022-08-23T13:01:32.267Z,29.26
2022-08-23T13:04:04.926Z,29.24
2022-08-23T13:06:37.908Z,29.39
2022-08-23T13:09:13.089Z,29.57
2022-08-23T13:11:40.376Z,29.67
2022-08-23T13:14:31.124Z,29.66
2022-08-23T13:17:31.502Z,29.72
2022-08-23T13:20:07.156Z,29.70
2022-08-23T13:22:36.045Z,29.80
2022-08-23T13:25:32.309Z,29.90
2022-08-23T13:28:03.440Z,30.13
2022-08-23T13:30:33.186Z,30.36
2022-08-23T13:33:08.677Z,30.48
2022-08-23T13:35:50.232Z,30.71
2022-08-23T13:38:22.822Z,30.79
2022-08-23T13:41:10.535Z,30.94
2022-08-23T13:43:48.838Z,31.21
2022-08-23T13:46:28.862Z,31.13
2022-08-23T13:49:11.591Z,31.27
2022-08-23T13:51:41.399Z,31.40
2022-08-23T13:54:13.781Z,31.22
2022-08-23T13:56:53.374Z,31.32
2022-08-23T13:59:31.810Z,31.71
2022-08-23T14:02:06.481Z,31.88
2022-08-23T14:04:34.175Z,32.19
2022-08-23T14:07:00.736Z,32.16
2022-08-23T14:09:27.407Z,31.85
2022-08-23T14:11:59.294Z,31.70
2022-08-23T14:14:28.145Z,31.51
2022-08-23T14:16:59.632Z,30.88
2022-08-23T14:22:17.885Z,31.31
2022-08-23T14:24:45.649Z,31.72
2022-08-23T14:27:12.798Z,31.31
2022-08-23T14:29:39.376Z,31.06
2022-08-23T14:32:06.185Z,30.97
2022-08-23T14:34:32.741Z,31.23
2022-08-23T14:39:46.514Z,31.91
2022-08-23T14:42:19.137Z,32.09
2022-08-23T14:44:45.934Z,32.16
2022-08-23T14:47:12.561Z,32.05
2022-08-23T14:49:39.538Z,31.56
2022-08-23T14:52:06.441Z,31.32
2022-08-23T14:54:33.523Z,31.02
2022-08-23T14:57:00.524Z,30.73
2022-08-23T14:59:27.250Z,30.44
2022-08-23T15:01:55.056Z,30.20
2022-08-23T15:04:23.608Z,30.26
2022-08-23T15:07:16.162Z,30.70
2022-08-23T15:09:38.363Z,31.44
2022-08-23T15:14:52.434Z,31.11
2022-08-23T15:17:19.100Z,30.60
2022-08-23T15:19:45.650Z,30.46
2022-08-23T15:22:18.459Z,30.26
2022-08-23T15:24:47.856Z,30.05
2022-08-23T15:27:14.461Z,29.90
2022-08-23T15:29:41.088Z,29.70
2022-08-23T15:32:07.839Z,29.58
2022-08-23T15:34:37.163Z,29.47
2022-08-23T15:37:06.849Z,29.33
2022-08-23T15:39:33.459Z,29.25
2022-08-23T15:42:00.019Z,29.17
2022-08-23T15:44:26.602Z,29.07
2022-08-23T15:46:54.844Z,28.98
2022-08-23T15:49:23.804Z,29.00
2022-08-23T15:51:50.347Z,29.02
2022-08-23T15:54:16.914Z,28.97
2022-08-23T15:56:46.993Z,28.97
2022-08-23T15:59:15.668Z,28.88
2022-08-23T16:01:42.715Z,28.77
2022-08-23T16:04:10.300Z,28.77
2022-08-23T16:06:37.994Z,28.84
2022-08-23T16:09:06.531Z,28.83
2022-08-23T16:11:33.485Z,28.74
2022-08-23T16:14:00.262Z,28.74
2022-08-23T16:16:31.013Z,28.72
2022-08-23T16:18:59.770Z,28.74
2022-08-23T16:21:29.202Z,28.71
2022-08-23T16:23:57.062Z,28.68
2022-08-23T16:26:34.751Z,28.61
2022-08-23T16:29:04.405Z,28.56
2022-08-23T16:31:38.440Z,28.53
2022-08-23T16:34:09.655Z,28.50
2022-08-23T16:36:36.912Z,28.46
2022-08-23T16:39:04.950Z,28.43
2022-08-23T16:41:31.585Z,28.43
2022-08-23T16:43:58.410Z,28.38
2022-08-23T16:46:28.840Z,28.35
2022-08-23T16:48:55.671Z,28.29
2022-08-23T16:51:23.188Z,28.24
2022-08-23T16:54:01.425Z,28.21
2022-08-23T16:56:33.540Z,28.20
2022-08-23T16:59:00.330Z,28.12
2022-08-23T17:01:27.551Z,28.04
2022-08-23T17:03:54.164Z,28.02
2022-08-23T17:06:21.069Z,27.99
2022-08-23T17:08:48.377Z,27.95
2022-08-23T17:11:18.869Z,27.99
2022-08-23T17:13:46.098Z,28.12
2022-08-23T17:16:12.968Z,28.05
2022-08-23T17:18:40.089Z,27.99
2022-08-23T17:21:07.721Z,27.95
2022-08-23T17:23:40.385Z,27.93
2022-08-23T17:26:09.569Z,27.87
2022-08-23T17:28:36.436Z,27.80
2022-08-23T17:31:03.880Z,27.75
2022-08-23T17:33:30.681Z,27.76
2022-08-23T17:35:57.344Z,27.75
2022-08-23T17:38:24.114Z,27.73
2022-08-23T17:40:50.898Z,27.69
2022-08-23T17:43:17.457Z,27.67
2022-08-23T17:45:51.260Z,27.61
2022-08-23T17:48:20.546Z,27.54
2022-08-23T17:50:48.178Z,27.47
2022-08-23T17:53:17.693Z,27.41
2022-08-23T17:55:44.415Z,27.39
2022-08-23T17:58:11.828Z,27.36
2022-08-23T18:00:39.837Z,27.34
2022-08-23T18:03:07.290Z,27.27
2022-08-23T18:05:37.332Z,27.23
2022-08-23T18:08:04.469Z,27.18
2022-08-23T18:10:31.120Z,27.14
2022-08-23T18:12:58.732Z,27.16
2022-08-23T18:15:26.828Z,27.19
2022-08-23T18:17:58.137Z,27.09
2022-08-23T18:20:28.414Z,27.03
2022-08-23T18:22:56.945Z,26.99
2022-08-23T18:25:24.362Z,26.94
2022-08-23T18:28:06.337Z,26.89
2022-08-23T18:30:37.508Z,26.83
2022-08-23T18:33:06.503Z,26.79
2022-08-23T18:35:34.681Z,26.70
2022-08-23T18:38:01.388Z,26.69
2022-08-23T18:40:28.833Z,26.65
2022-08-23T18:42:55.983Z,26.59
2022-08-23T18:45:22.962Z,26.51
2022-08-23T18:47:49.649Z,26.44
2022-08-23T18:50:18.740Z,26.39
2022-08-23T18:52:45.446Z,26.35
2022-08-23T18:55:12.117Z,26.28
2022-08-23T18:57:39.120Z,26.23
2022-08-23T19:00:06.826Z,26.17
2022-08-23T19:02:34.098Z,26.11
2022-08-23T19:05:03.026Z,26.09
2022-08-23T19:07:29.831Z,26.05
2022-08-23T19:09:56.454Z,26.02
2022-08-23T19:12:23.203Z,25.98
2022-08-23T19:14:49.816Z,25.95
2022-08-23T19:17:16.731Z,25.92
2022-08-23T19:19:43.357Z,25.88
2022-08-23T19:22:09.990Z,25.85
2022-08-23T19:24:36.625Z,25.81
2022-08-23T19:27:03.389Z,25.78
2022-08-23T19:29:30.108Z,25.76
2022-08-23T19:31:56.735Z,25.73
2022-08-23T19:34:23.870Z,25.70
2022-08-23T19:36:59.103Z,25.66
2022-08-23T19:39:28.248Z,25.63
2022-08-23T19:41:55.374Z,25.59
2022-08-23T19:44:22.772Z,25.56
2022-08-23T19:46:49.542Z,25.53
2022-08-23T19:49:16.629Z,25.51
2022-08-23T19:51:44.085Z,25.49
2022-08-23T19:54:12.916Z,25.46
2022-08-23T19:56:41.858Z,25.43
2022-08-23T19:59:12.698Z,25.40
2022-08-23T20:01:39.849Z,25.38
2022-08-23T20:04:06.740Z,25.38
2022-08-23T20:06:33.731Z,25.33
2022-08-23T20:09:00.533Z,25.28
2022-08-23T20:11:28.454Z,25.24
2022-08-23T20:13:56.713Z,25.20
2022-08-23T20:16:23.958Z,25.17
2022-08-23T20:18:51.591Z,25.15
2022-08-23T20:21:18.355Z,25.10
2022-08-23T20:24:03.815Z,25.07
2022-08-23T20:26:30.444Z,25.04
2022-08-23T20:28:59.831Z,25.00
2022-08-23T20:31:30.472Z,24.96
2022-08-23T20:33:57.263Z,24.92
2022-08-23T20:36:24.826Z,24.89
2022-08-23T20:38:51.547Z,24.82
2022-08-23T20:41:18.162Z,24.76
2022-08-23T20:43:49.007Z,24.70
2022-08-23T20:46:16.273Z,24.67
2022-08-23T20:48:43.067Z,24.64
2022-08-23T20:51:09.966Z,24.60
2022-08-23T20:53:38.143Z,24.55
2022-08-23T20:56:04.863Z,24.49
2022-08-23T20:58:32.993Z,24.46
2022-08-23T21:01:00.585Z,24.40
2022-08-23T21:03:27.264Z,24.33
2022-08-23T21:06:15.117Z,24.24
2022-08-23T21:08:43.453Z,24.23
2022-08-23T21:11:10.959Z,24.27
2022-08-23T21:13:44.005Z,24.33
2022-08-23T21:16:11.955Z,24.35
2022-08-23T21:18:39.016Z,24.32
2022-08-23T21:21:05.771Z,24.28
2022-08-23T21:23:33.034Z,24.24
2022-08-23T21:25:59.708Z,24.19
2022-08-23T21:28:27.315Z,24.17
2022-08-23T21:30:54.588Z,24.14
2022-08-23T21:33:22.071Z,24.10
2022-08-23T21:35:49.410Z,24.08
2022-08-23T21:38:15.961Z,24.06
2022-08-23T21:40:43.483Z,24.04
2022-08-23T21:43:10.462Z,24.00
2022-08-23T21:45:37.619Z,23.96
2022-08-23T21:48:08.423Z,23.91
2022-08-23T21:50:34.960Z,23.90
2022-08-23T21:53:01.649Z,23.86
2022-08-23T21:55:36.075Z,23.82
2022-08-23T21:58:03.808Z,23.79
2022-08-23T22:00:30.691Z,23.74
2022-08-23T22:02:57.642Z,23.72
2022-08-23T22:05:24.708Z,23.71
2022-08-23T22:07:51.952Z,23.67
2022-08-23T22:10:19.279Z,23.65
2022-08-23T22:12:45.924Z,23.60
2022-08-23T22:15:13.076Z,23.55
2022-08-23T22:17:40.557Z,23.45
2022-08-23T22:20:09.499Z,23.37
2022-08-23T22:22:36.929Z,23.33
2022-08-23T22:25:04.282Z,23.27
2022-08-23T22:27:32.425Z,23.24
2022-08-23T22:29:59.500Z,23.17
2022-08-23T22:32:26.747Z,23.14
2022-08-23T22:34:53.423Z,23.16
2022-08-23T22:37:19.970Z,23.15
2022-08-23T22:39:46.658Z,23.15
2022-08-23T22:42:13.862Z,23.15
2022-08-23T22:44:40.713Z,23.14
2022-08-23T22:47:07.701Z,23.03
2022-08-23T22:49:34.619Z,23.00
2022-08-23T22:52:01.563Z,23.00
2022-08-23T22:54:28.117Z,23.02
2022-08-23T22:56:54.725Z,23.01
2022-08-23T22:59:25.846Z,23.01
2022-08-23T23:01:56.088Z,23.00
2022-08-23T23:04:25.859Z,22.91
2022-08-23T23:06:53.671Z,22.78
2022-08-23T23:09:20.556Z,22.75
2022-08-23T23:11:48.079Z,22.73
2022-08-23T23:14:17.053Z,22.72
2022-08-23T23:16:44.659Z,22.71
2022-08-23T23:19:50.408Z,22.69
2022-08-23T23:22:17.266Z,22.63
2022-08-23T23:24:43.850Z,22.61
2022-08-23T23:27:10.456Z,22.67
2022-08-23T23:29:38.451Z,22.62
2022-08-23T23:32:06.069Z,22.55
2022-08-23T23:34:32.692Z,22.52
2022-08-23T23:36:59.475Z,22.50
2022-08-23T23:39:27.703Z,22.51
2022-08-23T23:41:55.621Z,22.55
2022-08-23T23:44:30.751Z,22.53
2022-08-23T23:46:59.601Z,22.47
2022-08-23T23:49:33.156Z,22.45
2022-08-23T23:52:02.393Z,22.39
2022-08-23T23:54:29.021Z,22.37
2022-08-23T23:56:55.702Z,22.40
2022-08-23T23:59:22.278Z,22.44
